createdAt,value
2023-05-19T00:02:04.452Z,0
2023-05-19T00:07:05.958Z,0.88715
2023-05-19T00:12:07.325Z,0
2023-05-19T00:17:08.824Z,0
2023-05-19T00:22:10.105Z,0
2023-05-19T00:27:11.673Z,0
2023-05-19T00:32:13.136Z,0
2023-05-19T00:37:14.552Z,0.88715
2023-05-19T00:42:16.344Z,0
2023-05-19T00:47:17.717Z,0
2023-05-19T00:52:19.160Z,0
2023-05-19T00:57:20.636Z,0
2023-05-19T01:02:22.269Z,0
2023-05-19T01:07:23.693Z,0
2023-05-19T01:12:25.039Z,0
2023-05-19T01:17:26.597Z,0
2023-05-19T01:22:27.883Z,0
2023-05-19T01:27:29.843Z,0
2023-05-19T01:32:31.269Z,0
2023-05-19T01:37:32.613Z,0
2023-05-19T01:42:34.458Z,0.88715
2023-05-19T01:47:36.024Z,0
2023-05-19T01:52:37.336Z,0
2023-05-19T01:57:38.831Z,0.88715
2023-05-19T02:02:40.220Z,0
2023-05-19T02:07:41.723Z,0
2023-05-19T02:12:43.113Z,0
2023-05-19T02:17:44.745Z,0
2023-05-19T02:22:46.158Z,0
2023-05-19T02:27:47.954Z,0
2023-05-19T02:32:49.354Z,0
2023-05-19T02:37:50.806Z,0
2023-05-19T02:42:52.985Z,0
2023-05-19T02:47:54.542Z,0
2023-05-19T02:52:55.833Z,0.88715
2023-05-19T02:57:57.168Z,0
2023-05-19T03:02:58.548Z,0.88715
2023-05-19T03:08:00.262Z,0
2023-05-19T03:13:01.523Z,0
2023-05-19T03:18:02.814Z,0
2023-05-19T03:23:04.189Z,0
2023-05-19T03:28:05.932Z,0
2023-05-19T03:33:07.892Z,0
2023-05-19T03:38:09.845Z,0
2023-05-19T03:43:11.776Z,0
2023-05-19T03:48:13.413Z,0
2023-05-19T03:53:15.005Z,0.88715
2023-05-19T03:58:16.541Z,0
2023-05-19T04:03:18.137Z,0
2023-05-19T04:08:19.953Z,0.88715
2023-05-19T04:13:21.481Z,0.88715
2023-05-19T04:18:22.905Z,0
2023-05-19T04:23:24.175Z,0.4148
2023-05-19T04:28:25.449Z,0.8296
2023-05-19T04:33:27.033Z,2.87705
2023-05-19T04:38:28.634Z,6.7315
2023-05-19T04:43:30.475Z,15.0489
2023-05-19T04:48:31.849Z,23.55075
2023-05-19T04:53:33.112Z,33.1593
2023-05-19T04:58:34.439Z,40.94235
2023-05-19T05:03:36.111Z,56.1757
2023-05-19T05:08:37.486Z,66.7065
2023-05-19T05:13:39.064Z,83.7292
2023-05-19T05:18:42.228Z,89.6316
2023-05-19T05:23:45.937Z,89.2416
2023-05-19T05:28:47.651Z,112.99975
2023-05-19T05:33:49.055Z,144.8109
2023-05-19T05:38:50.403Z,164.56235
2023-05-19T05:43:52.167Z,182.35715
2023-05-19T05:48:53.805Z,189.585
2023-05-19T05:53:55.646Z,209.8708
2023-05-19T05:58:57.386Z,232.42515
2023-05-19T06:03:59.021Z,265.3087
2023-05-19T06:09:00.639Z,266.23095
2023-05-19T06:14:02.250Z,296.32875
2023-05-19T06:19:03.942Z,325.5043
2023-05-19T06:24:05.778Z,337.56585
2023-05-19T06:29:07.369Z,351.28745
2023-05-19T06:34:08.966Z,415.7064
2023-05-19T06:39:10.526Z,491.02505
2023-05-19T06:44:11.951Z,534.60485
2023-05-19T06:49:13.245Z,568.7054
2023-05-19T06:54:14.550Z,587.333
2023-05-19T06:59:15.797Z,613.22645
2023-05-19T07:04:17.432Z,634.89655
2023-05-19T07:09:19.043Z,653.6896
2023-05-19T07:14:21.221Z,679.45375
2023-05-19T07:19:22.869Z,704.42495
2023-05-19T07:24:24.569Z,729.02725
2023-05-19T07:29:26.133Z,751.7299
2023-05-19T07:34:27.816Z,771.6848
2023-05-19T07:39:29.446Z,787.7301
2023-05-19T07:44:31.608Z,806.7076
2023-05-19T07:49:33.476Z,826.23845
2023-05-19T07:54:34.715Z,852.55595
2023-05-19T07:59:36.072Z,872.0868
2023-05-19T08:04:37.480Z,894.4947
2023-05-19T08:09:38.779Z,922.1585
2023-05-19T08:14:40.205Z,945.11975
2023-05-19T08:19:41.504Z,967.4725
2023-05-19T08:24:42.781Z,986.3397
2023-05-19T08:29:44.379Z,1009.06135
2023-05-19T08:34:45.914Z,1028.05785
2023-05-19T08:39:47.521Z,1043.1999
2023-05-19T08:44:49.465Z,1056.38715
2023-05-19T08:49:51.143Z,1070.0726
2023-05-19T08:54:52.700Z,1094.9335
2023-05-19T08:59:54.216Z,1105.7419
2023-05-19T09:04:55.604Z,1116.36585
2023-05-19T09:09:57.157Z,1135.60195
2023-05-19T09:14:58.536Z,1146.8344
2023-05-19T09:20:00.215Z,1163.80195
2023-05-19T09:25:01.879Z,1184.0706
2023-05-19T09:30:03.548Z,1190.78495
2023-05-19T09:35:05.371Z,1218.0247
2023-05-19T09:40:06.964Z,1233.16675
2023-05-19T09:45:09.177Z,1254.4318
2023-05-19T09:50:10.933Z,1276.6001
2023-05-19T09:55:12.513Z,1308.72685
2023-05-19T10:00:14.190Z,1327.72335
2023-05-19T10:05:15.837Z,1353.54265
2023-05-19T10:10:17.708Z,1376.09885
2023-05-19T10:15:21.403Z,1417.1705
2023-05-19T10:20:24.800Z,1443.8379
2023-05-19T10:25:26.624Z,1480.9068
2023-05-19T10:30:28.261Z,1505.58325
2023-05-19T10:35:30.331Z,1536.9722
2023-05-19T10:40:33.085Z,1567.07
2023-05-19T10:45:35.448Z,1593.6271
2023-05-19T10:50:37.355Z,1619.705
2023-05-19T10:55:38.620Z,1646.18795
2023-05-19T11:00:39.941Z,1678.84905
2023-05-19T11:05:41.504Z,1703.1186
2023-05-19T11:10:42.821Z,1721.4686
2023-05-19T11:15:44.230Z,1743.30415
2023-05-19T11:20:45.580Z,1752.5438
2023-05-19T11:25:47.058Z,1781.33145
2023-05-19T11:30:48.457Z,1784.41195
2023-05-19T11:35:56.486Z,1818.62095
2023-05-19T11:40:58.042Z,1839.77385
2023-05-19T11:46:00.418Z,1844.3661
2023-05-19T11:51:01.973Z,1864.264
2023-05-19T11:56:03.622Z,1883.51725
2023-05-19T12:01:05.612Z,1898.473
2023-05-19T12:06:07.188Z,1907.7488
2023-05-19T12:11:08.829Z,1915.75245
2023-05-19T12:16:10.460Z,1927.11235
2023-05-19T12:21:12.043Z,1935.3366
2023-05-19T12:26:13.552Z,1945.2209
2023-05-19T12:31:15.236Z,1948.1341
2023-05-19T12:36:16.977Z,1937.474
2023-05-19T12:41:18.740Z,1948.2064
2023-05-19T12:46:20.323Z,1953.73805
2023-05-19T12:51:22.105Z,1947.9098
2023-05-19T12:56:24.116Z,1937.80305
2023-05-19T13:01:25.852Z,1925.4829
2023-05-19T13:06:27.586Z,1923.56425
2023-05-19T13:11:29.161Z,1913.3282
2023-05-19T13:16:31.002Z,1906.26395
2023-05-19T13:21:32.452Z,1878.36055
2023-05-19T13:26:33.884Z,1850.9915
2023-05-19T13:31:35.589Z,1817.75805
2023-05-19T13:36:37.368Z,1779.6376
2023-05-19T13:41:38.717Z,1752.0841
2023-05-19T13:46:45.322Z,1702.95365
2023-05-19T13:51:48.106Z,1632.09795
2023-05-19T13:56:49.774Z,1548.093
2023-05-19T14:01:51.394Z,1444.8348
2023-05-19T14:06:52.873Z,1341.6869
2023-05-19T14:11:54.374Z,1215.6709
2023-05-19T14:16:55.709Z,1089.9135
2023-05-19T14:21:57.326Z,922.34665
2023-05-19T14:26:58.659Z,704.8754
2023-05-19T14:32:00.266Z,413.5041
2023-05-19T14:37:01.737Z,341.17095
2023-05-19T14:42:02.994Z,286.526
2023-05-19T14:47:04.503Z,258.7139
2023-05-19T14:52:05.992Z,223.74625
2023-05-19T14:57:07.702Z,184.83285
2023-05-19T15:02:09.717Z,128.76745
2023-05-19T15:07:11.409Z,94.0204
2023-05-19T15:12:12.924Z,74.5447
2023-05-19T15:17:14.910Z,54.5898
2023-05-19T15:22:16.676Z,39.6512
2023-05-19T15:27:18.353Z,21.11675
2023-05-19T15:32:19.979Z,8.059
2023-05-19T15:37:22.244Z,5.33005
2023-05-19T15:42:23.863Z,2.25175
2023-05-19T15:47:25.469Z,0.88885
2023-05-19T15:52:27.206Z,1.16185
2023-05-19T15:57:28.738Z,0.88715
2023-05-19T16:02:30.374Z,0.88715
2023-05-19T16:07:31.971Z,0.88715
2023-05-19T16:12:33.673Z,0.88715
2023-05-19T16:17:35.057Z,0
2023-05-19T16:22:36.324Z,0.88715
2023-05-19T16:27:37.721Z,0
2023-05-19T16:32:39.122Z,0
2023-05-19T16:37:40.615Z,0
2023-05-19T16:42:41.896Z,0
2023-05-19T16:47:43.343Z,0
2023-05-19T16:52:45.207Z,0.88715
2023-05-19T16:57:46.768Z,0
2023-05-19T17:02:48.578Z,0
2023-05-19T17:07:50.218Z,0
2023-05-19T17:12:51.777Z,0.88715
2023-05-19T17:17:53.383Z,0.88715
2023-05-19T17:22:55.046Z,0.88715
2023-05-19T17:27:56.618Z,0
2023-05-19T17:32:58.266Z,0.88715
2023-05-19T17:37:59.968Z,0
2023-05-19T17:43:01.783Z,0
2023-05-19T17:48:03.419Z,0.88715
2023-05-19T17:53:05.054Z,0.88715
2023-05-19T17:58:06.635Z,0.88715
2023-05-19T18:03:08.337Z,0.88715
2023-05-19T18:08:09.995Z,0.88715
2023-05-19T18:13:11.273Z,0
2023-05-19T18:18:12.958Z,0
2023-05-19T18:23:14.326Z,0
2023-05-19T18:28:15.695Z,0
2023-05-19T18:33:17.336Z,0.88715
2023-05-19T18:38:19.448Z,0
2023-05-19T18:43:21.289Z,0.88715
2023-05-19T18:48:22.765Z,0
2023-05-19T18:53:24.456Z,0
2023-05-19T18:58:26.313Z,0.88715
2023-05-19T19:03:27.816Z,0.88715
2023-05-19T19:08:29.460Z,0.88715
2023-05-19T19:13:30.807Z,0
2023-05-19T19:18:32.521Z,0
2023-05-19T19:23:34.157Z,0
2023-05-19T19:28:35.830Z,0.88715
2023-05-19T19:33:37.355Z,0
2023-05-19T19:38:38.717Z,0.88715
2023-05-19T19:43:41.998Z,0
2023-05-19T19:53:54.132Z,0
2023-05-19T19:58:56.631Z,0
2023-05-19T20:03:59.275Z,0.88715
2023-05-19T20:09:00.909Z,0.88715
2023-05-19T20:19:12.993Z,0.88715
2023-05-19T20:24:14.918Z,0
2023-05-19T20:29:16.376Z,0
2023-05-19T20:34:17.942Z,0.88715
2023-05-19T20:39:19.498Z,0.88715
2023-05-19T20:44:20.979Z,0
2023-05-19T20:49:22.580Z,0
2023-05-19T20:54:24.204Z,0
2023-05-19T20:59:25.932Z,0
2023-05-19T21:04:27.575Z,0
2023-05-19T21:09:29.416Z,0
2023-05-19T21:14:30.986Z,0.88715
2023-05-19T21:19:32.629Z,0
2023-05-19T21:24:34.244Z,0
2023-05-19T21:29:35.888Z,0.88715
2023-05-19T21:34:37.665Z,0
2023-05-19T21:39:39.151Z,0
2023-05-19T21:44:40.474Z,0.88715
2023-05-19T21:49:41.899Z,0.88715
2023-05-19T21:54:43.253Z,0.88715
2023-05-19T21:59:44.557Z,0
2023-05-19T22:04:46.001Z,0.88715
2023-05-19T22:09:48.907Z,0
2023-05-19T22:14:50.339Z,0
2023-05-19T22:19:51.666Z,0
2023-05-19T22:24:53.309Z,0
2023-05-19T22:29:54.584Z,0
2023-05-19T22:34:56.055Z,0.88715
2023-05-19T22:39:57.414Z,0
2023-05-19T22:44:58.662Z,0
2023-05-19T22:50:00.229Z,0
2023-05-19T22:55:01.884Z,0.88715
2023-05-19T23:00:03.485Z,0
2023-05-19T23:05:05.259Z,0.88715
2023-05-19T23:10:06.770Z,0
2023-05-19T23:15:08.278Z,0.88715
2023-05-19T23:20:09.732Z,0
2023-05-19T23:25:11.304Z,0
2023-05-19T23:30:12.853Z,0
2023-05-19T23:35:14.485Z,0
2023-05-19T23:40:16.017Z,0.88715
2023-05-19T23:45:17.725Z,0.88715
2023-05-19T23:50:19.287Z,0
2023-05-19T23:55:20.861Z,0
